Terminal Aerodrome Forecast
Issued by NWS Los Angeles, CA

Home | Current Version | Previous Version | Text Only | Print | Product List | Glossary On
Versions: 1 2 3 4 5 6 7 8 9 10 11 12 13 14 15 16 17 18 19
402
FTUS46 KLOX 251404 AAB
TAFSMX
TAF AMD
KSMX 251404Z 2514/2612 VRB03KT 6SM BR OVC006
     FM251700 31005KT P6SM BKN025 BKN040
     FM252000 32018G25KT P6SM SCT050
     FM260300 32012G20KT P6SM SCT080
     FM260600 VRB03KT P6SM BKN020=

USA.gov is the U.S. government's official web portal to all federal, state and local government web resources and services.